createdAt,value
2018-12-20T00:01:38.230Z,99.90
2018-12-20T00:06:39.493Z,99.90
2018-12-20T00:11:40.759Z,99.90
2018-12-20T00:16:42.046Z,99.90
2018-12-20T00:21:43.386Z,99.90
2018-12-20T00:26:44.696Z,99.90
2018-12-20T00:31:46.084Z,99.90
2018-12-20T00:36:47.281Z,99.90
2018-12-20T00:41:48.785Z,99.90
2018-12-20T00:46:50.162Z,99.90
2018-12-20T00:51:51.459Z,99.90
2018-12-20T00:56:52.799Z,99.90
2018-12-20T01:01:54.251Z,99.90
2018-12-20T01:06:55.663Z,99.90
2018-12-20T01:11:56.977Z,99.90
2018-12-20T01:16:58.271Z,99.90
2018-12-20T01:21:59.748Z,99.90
2018-12-20T01:27:01.189Z,99.90
2018-12-20T01:32:02.729Z,99.90
2018-12-20T01:37:04.212Z,99.90
2018-12-20T01:42:05.581Z,99.90
2018-12-20T01:47:06.879Z,99.90
2018-12-20T01:52:08.229Z,99.90
2018-12-20T01:57:09.526Z,99.90
2018-12-20T02:02:10.860Z,99.90
2018-12-20T02:07:12.464Z,99.90
2018-12-20T02:12:13.733Z,99.90
2018-12-20T02:17:15.053Z,99.90
2018-12-20T02:22:16.273Z,99.90
2018-12-20T02:27:17.593Z,99.90
2018-12-20T02:32:18.850Z,99.90
2018-12-20T02:37:20.153Z,99.90
2018-12-20T02:42:21.913Z,99.90
2018-12-20T02:47:25.137Z,99.90
2018-12-20T02:52:26.340Z,99.90
2018-12-20T02:57:27.567Z,99.90
2018-12-20T03:02:28.823Z,99.90
2018-12-20T03:07:30.336Z,99.90
2018-12-20T03:12:31.834Z,99.90
2018-12-20T03:17:33.167Z,99.90
2018-12-20T03:22:34.504Z,99.90
2018-12-20T03:27:35.965Z,99.90
2018-12-20T03:32:37.328Z,99.90
2018-12-20T03:37:38.941Z,99.90
2018-12-20T03:42:40.528Z,99.90
2018-12-20T03:47:42.010Z,99.90
2018-12-20T03:52:43.337Z,99.90
2018-12-20T03:57:44.650Z,99.90
2018-12-20T04:02:46.007Z,99.90
2018-12-20T04:07:47.348Z,99.90
2018-12-20T04:12:48.644Z,99.90
2018-12-20T04:17:49.968Z,99.90
2018-12-20T04:22:51.445Z,99.90
2018-12-20T04:27:52.838Z,99.90
2018-12-20T04:32:54.109Z,99.90
2018-12-20T04:37:57.016Z,99.90
2018-12-20T04:42:58.231Z,99.90
2018-12-20T04:47:59.567Z,99.90
2018-12-20T04:53:00.918Z,99.90
2018-12-20T04:58:02.670Z,99.90
2018-12-20T05:03:04.087Z,99.90
2018-12-20T05:08:05.520Z,99.90
2018-12-20T05:13:06.977Z,99.90
2018-12-20T05:18:08.413Z,99.90
2018-12-20T05:23:09.914Z,99.90
2018-12-20T05:28:11.256Z,99.90
2018-12-20T05:33:12.651Z,99.90
2018-12-20T05:38:14.185Z,99.90
2018-12-20T05:43:15.429Z,99.90
2018-12-20T05:48:16.821Z,99.90
2018-12-20T05:53:18.070Z,99.90
2018-12-20T05:58:19.495Z,99.90
2018-12-20T06:03:20.749Z,99.90
2018-12-20T06:08:22.148Z,99.90
2018-12-20T06:13:23.521Z,99.90
2018-12-20T06:18:24.806Z,99.90
2018-12-20T06:23:26.066Z,99.90
2018-12-20T06:28:27.281Z,99.90
2018-12-20T06:33:28.513Z,99.90
2018-12-20T06:38:29.714Z,99.90
2018-12-20T06:43:30.943Z,99.90
2018-12-20T06:48:32.189Z,99.90
2018-12-20T06:53:33.411Z,99.90
2018-12-20T06:58:34.717Z,99.90
2018-12-20T07:03:35.929Z,99.90
2018-12-20T07:08:37.145Z,99.90
2018-12-20T07:13:38.357Z,99.90
2018-12-20T07:18:39.589Z,99.90
2018-12-20T07:23:40.818Z,99.90
2018-12-20T07:28:42.050Z,99.90
2018-12-20T07:33:43.302Z,99.90
2018-12-20T07:38:44.529Z,99.90
2018-12-20T07:43:45.741Z,99.90
2018-12-20T07:48:46.966Z,99.90
2018-12-20T07:53:48.197Z,99.90
2018-12-20T07:58:49.435Z,99.90
2018-12-20T08:03:50.816Z,99.90
2018-12-20T08:08:52.032Z,99.90
2018-12-20T08:13:53.303Z,99.90
2018-12-20T08:18:54.537Z,99.90
2018-12-20T08:23:55.751Z,99.90
2018-12-20T08:28:56.968Z,99.90
2018-12-20T08:33:58.181Z,99.90
2018-12-20T08:38:59.404Z,99.90
2018-12-20T08:44:01.280Z,99.90
2018-12-20T08:49:02.653Z,99.90
2018-12-20T08:54:04.057Z,99.90
2018-12-20T08:59:05.453Z,99.90
2018-12-20T09:04:06.964Z,99.90
2018-12-20T09:09:08.239Z,99.90
2018-12-20T09:14:09.492Z,99.90
2018-12-20T09:19:10.722Z,99.90
2018-12-20T09:24:11.970Z,99.90
2018-12-20T09:29:13.214Z,99.90
2018-12-20T09:34:14.437Z,99.90
2018-12-20T09:39:15.661Z,99.90
2018-12-20T09:44:16.885Z,99.90
2018-12-20T09:49:18.142Z,99.90
2018-12-20T09:54:19.390Z,99.90
2018-12-20T09:59:20.658Z,99.90
2018-12-20T10:04:21.879Z,99.90
2018-12-20T10:09:23.104Z,99.90
2018-12-20T10:14:24.338Z,99.90
2018-12-20T10:19:25.690Z,99.90
2018-12-20T10:24:26.910Z,99.90
2018-12-20T10:29:28.590Z,99.90
2018-12-20T10:34:29.857Z,99.90
2018-12-20T10:39:31.126Z,99.90
2018-12-20T10:44:32.447Z,99.90
2018-12-20T10:49:33.781Z,99.90
2018-12-20T10:54:35.137Z,99.90
2018-12-20T10:59:36.358Z,99.90
2018-12-20T11:04:43.720Z,99.90
2018-12-20T11:09:51.096Z,99.90
2018-12-20T11:14:53.685Z,99.90
2018-12-20T11:19:54.926Z,99.90
2018-12-20T11:24:56.472Z,99.90
2018-12-20T11:29:58.065Z,99.90
2018-12-20T11:34:59.509Z,99.90
2018-12-20T11:40:01.015Z,99.90
2018-12-20T11:45:03.976Z,99.90
2018-12-20T11:50:05.552Z,99.90
2018-12-20T11:55:07.211Z,99.90
2018-12-20T12:00:10.983Z,99.90
2018-12-20T12:05:12.486Z,99.90
2018-12-20T12:10:13.934Z,99.40
2018-12-20T12:15:15.690Z,99.80
2018-12-20T12:20:17.205Z,99.30
2018-12-20T12:25:18.639Z,98.80
2018-12-20T12:30:20.019Z,98.50
2018-12-20T12:35:21.250Z,97.80
2018-12-20T12:40:22.621Z,97.70
2018-12-20T12:45:23.850Z,97.50
2018-12-20T12:50:25.077Z,97.60
2018-12-20T12:55:26.302Z,97.00
2018-12-20T13:00:27.574Z,93.90
2018-12-20T13:05:28.831Z,93.70
2018-12-20T13:10:30.060Z,93.40
2018-12-20T13:15:31.330Z,93.00
2018-12-20T13:20:32.894Z,94.60
2018-12-20T13:25:34.250Z,93.10
2018-12-20T13:30:35.485Z,92.80
2018-12-20T13:35:36.981Z,93.00
2018-12-20T13:40:38.341Z,92.00
2018-12-20T13:45:39.582Z,94.30
2018-12-20T13:50:40.833Z,91.90
2018-12-20T13:55:42.151Z,89.60
2018-12-20T14:00:43.414Z,90.50
2018-12-20T14:05:44.797Z,93.20
2018-12-20T14:10:46.063Z,93.70
2018-12-20T14:15:47.340Z,94.40
2018-12-20T14:20:48.558Z,91.00
2018-12-20T14:25:49.897Z,92.30
2018-12-20T14:30:51.270Z,93.90
2018-12-20T14:35:52.506Z,96.80
2018-12-20T14:40:53.780Z,96.70
2018-12-20T14:45:55.147Z,98.20
2018-12-20T14:50:56.498Z,97.00
2018-12-20T14:55:57.894Z,97.00
2018-12-20T15:00:59.288Z,95.90
2018-12-20T15:06:00.674Z,94.90
2018-12-20T15:11:01.917Z,95.60
2018-12-20T15:16:03.397Z,96.20
2018-12-20T15:21:04.698Z,95.80
2018-12-20T15:26:06.211Z,96.30
2018-12-20T15:31:07.562Z,97.60
2018-12-20T15:36:08.934Z,97.20
2018-12-20T15:41:10.298Z,97.00
2018-12-20T15:46:11.527Z,97.50
2018-12-20T15:51:12.766Z,98.00
2018-12-20T15:56:14.008Z,97.90
2018-12-20T16:01:15.375Z,97.90
2018-12-20T16:06:16.711Z,99.00
2018-12-20T16:11:18.016Z,99.50
2018-12-20T16:16:19.316Z,99.80
2018-12-20T16:21:20.681Z,99.90
2018-12-20T16:26:21.976Z,99.90
2018-12-20T16:31:23.209Z,99.90
2018-12-20T16:36:24.566Z,99.90
2018-12-20T16:41:25.838Z,99.90
2018-12-20T16:46:27.098Z,99.90
2018-12-20T16:51:28.340Z,99.90
2018-12-20T16:56:29.602Z,99.90
2018-12-20T17:01:30.864Z,99.90
2018-12-20T17:06:32.123Z,99.90
2018-12-20T17:11:33.425Z,99.90
2018-12-20T17:16:34.846Z,99.90
2018-12-20T17:21:36.132Z,99.90
2018-12-20T17:26:37.450Z,99.90
2018-12-20T17:31:38.724Z,99.90
2018-12-20T17:36:39.977Z,99.90
2018-12-20T17:41:41.264Z,99.90
2018-12-20T17:46:42.526Z,99.90
2018-12-20T17:51:43.813Z,99.90
2018-12-20T17:56:45.088Z,99.90
2018-12-20T18:01:46.357Z,99.90
2018-12-20T18:06:47.616Z,99.90
2018-12-20T18:11:48.893Z,99.90
2018-12-20T18:16:50.155Z,99.90
2018-12-20T18:21:51.513Z,99.90
2018-12-20T18:26:52.775Z,99.90
2018-12-20T18:31:54.044Z,99.90
2018-12-20T18:36:55.306Z,99.90
2018-12-20T18:41:56.580Z,99.90
2018-12-20T18:46:57.827Z,99.90
2018-12-20T18:51:59.113Z,99.90
2018-12-20T18:57:00.419Z,99.90
2018-12-20T19:02:01.695Z,99.90
2018-12-20T19:07:03.065Z,99.90
2018-12-20T19:12:04.422Z,99.90
2018-12-20T19:17:05.868Z,99.90
2018-12-20T19:22:07.688Z,99.90
2018-12-20T19:27:09.032Z,99.90
2018-12-20T19:32:10.335Z,99.90
2018-12-20T19:37:11.601Z,99.90
2018-12-20T19:42:12.874Z,99.90
2018-12-20T19:47:14.181Z,99.90
2018-12-20T19:52:15.440Z,99.90
2018-12-20T19:57:16.739Z,99.90
2018-12-20T20:02:18.154Z,99.90
2018-12-20T20:07:19.406Z,99.90
2018-12-20T20:12:20.752Z,99.90
2018-12-20T20:17:22.101Z,99.90
2018-12-20T20:22:23.426Z,99.90
2018-12-20T20:27:24.684Z,99.90
2018-12-20T20:32:25.972Z,99.90
2018-12-20T20:37:27.259Z,99.90
2018-12-20T20:42:28.558Z,99.60
2018-12-20T20:47:29.838Z,99.70
2018-12-20T20:52:31.119Z,99.60
2018-12-20T20:57:32.386Z,99.70
2018-12-20T21:02:33.622Z,99.50
2018-12-20T21:07:34.907Z,99.50
2018-12-20T21:12:36.158Z,99.60
2018-12-20T21:17:37.410Z,99.60
2018-12-20T21:22:38.698Z,99.50
2018-12-20T21:27:39.962Z,99.90
2018-12-20T21:32:41.218Z,99.90
2018-12-20T21:37:42.671Z,99.90
2018-12-20T21:42:44.151Z,99.90
2018-12-20T21:47:45.580Z,99.90
2018-12-20T21:52:47.006Z,99.80
2018-12-20T21:57:48.452Z,99.70
2018-12-20T22:02:49.876Z,99.50
2018-12-20T22:07:51.410Z,99.40
2018-12-20T22:12:52.866Z,99.30
2018-12-20T22:17:54.328Z,99.10
2018-12-20T22:22:55.797Z,99.10
2018-12-20T22:27:57.281Z,99.10
2018-12-20T22:32:58.783Z,99.00
2018-12-20T22:38:00.228Z,99.10
2018-12-20T22:43:01.650Z,99.10
2018-12-20T22:48:03.321Z,99.20
2018-12-20T22:53:07.119Z,99.40
2018-12-20T22:58:08.250Z,99.20
2018-12-20T23:03:09.529Z,99.40
2018-12-20T23:08:11.937Z,99.30
2018-12-20T23:13:13.466Z,99.30
2018-12-20T23:18:14.883Z,99.30
2018-12-20T23:23:16.413Z,99.10
2018-12-20T23:28:17.883Z,99.20
2018-12-20T23:33:19.311Z,99.10
2018-12-20T23:38:20.738Z,99.20
2018-12-20T23:43:22.208Z,99.30
2018-12-20T23:48:23.686Z,99.10
2018-12-20T23:53:25.217Z,99.20
2018-12-20T23:58:26.630Z,99.40
